Terminal Aerodrome Forecast
Issued by NWS

Home | Current Version | Previous Version | Text Only | Print | Product List | Glossary On
Versions: 1 2 3 4 5 6 7 8 9 10 11 12 13 14 15 16 17 18 19 20 21 22 23 24
000
FTUS45 KSLC 201745
TAFSGU
TAF
KSGU 201745Z 2018/2118 21011KT P6SM SKC
     FM202100 25018G28KT P6SM FEW150
     FM210100 33012KT P6SM FEW150
     FM211300 04009KT P6SM SKC=

USA.gov is the U.S. government's official web portal to all federal, state and local government web resources and services.